Time;durP1;ratioP1;P1;durP2;ratioP2;P2;SDS_P1;SDS_P2;PMS_P1;PMS_P2;Temp;Humidity;BMP_temperature;BMP_pressure;BME280_temperature;BME280_humidity;BME280_pressure;Samples;Min_cycle;Max_cycle;Signal;HPM_P1;HPM_P2
2023/03/14 10:11:22;;;;;;;9.50;9.20;;;18.10;90.50;;;;;;5107885;27;20589;-75
2023/03/14 10:14:02;;;;;;;9.97;9.67;;;16.40;94.00;;;;;;5107678;28;20453;-75
2023/03/14 10:16:30;;;;;;;10.10;9.80;;;16.80;93.30;;;;;;5107611;28;20445;-77
2023/03/14 10:19:04;;;;;;;11.50;11.10;;;17.80;91.80;;;;;;5107515;28;20467;-77
2023/03/14 10:21:33;;;;;;;10.10;9.80;;;18.20;90.70;;;;;;5107557;28;20706;-77
2023/03/14 10:24:09;;;;;;;10.10;9.80;;;18.70;90.50;;;;;;5107679;28;20552;-77
2023/03/14 10:26:38;;;;;;;10.70;10.40;;;19.00;89.90;;;;;;5107942;28;20792;-77
2023/03/14 10:29:11;;;;;;;11.40;11.00;;;19.70;87.90;;;;;;5107310;28;20999;-77
2023/03/14 10:31:48;;;;;;;11.40;10.90;;;20.20;85.90;;;;;;5107745;28;20458;-77
2023/03/14 10:34:18;;;;;;;11.03;10.73;;;19.90;84.20;;;;;;5107737;28;20481;-78
2023/03/14 10:36:45;;;;;;;9.97;9.47;;;19.10;85.60;;;;;;5107680;28;20719;-77
2023/03/14 10:39:26;;;;;;;10.37;10.07;;;17.80;89.30;;;;;;5107276;28;20449;-77
2023/03/14 10:42:02;;;;;;;10.60;10.30;;;17.20;91.00;;;;;;5107539;28;20536;-76
2023/03/14 10:44:31;;;;;;;10.50;10.20;;;16.70;92.00;;;;;;5107259;28;20449;-77
2023/03/14 10:47:00;;;;;;;10.70;10.27;;;16.40;92.50;;;;;;5107094;28;20800;-77
2023/03/14 10:49:30;;;;;;;10.00;9.70;;;16.70;93.00;;;;;;5107185;28;20481;-77
2023/03/14 10:52:01;;;;;;;11.60;11.00;;;17.40;92.10;;;;;;5106975;28;20450;-77
2023/03/14 10:54:31;;;;;;;11.80;11.20;;;17.50;91.20;;;;;;5107248;28;20449;-76
2023/03/14 10:57:00;;;;;;;10.33;9.90;;;17.30;91.50;;;;;;5107075;28;20452;-76
2023/03/14 10:59:30;;;;;;;10.47;10.07;;;17.50;91.50;;;;;;5107047;28;20453;-76
2023/03/14 11:02:00;;;;;;;10.70;10.07;;;17.20;92.10;;;;;;5106968;28;20445;-76
2023/03/14 11:04:48;;;;;;;10.67;10.27;;;16.50;92.50;;;;;;5106871;28;20453;-76
2023/03/14 11:07:22;;;;;;;9.20;8.90;;;16.00;93.80;;;;;;5106962;28;20781;-76
2023/03/14 11:09:55;;;;;;;9.50;9.20;;;15.80;94.50;;;;;;5106609;28;20546;-76
2023/03/14 11:12:35;;;;;;;9.30;9.00;;;15.20;95.40;;;;;;5093053;28;20485;-76
2023/03/14 11:15:06;;;;;;;9.23;8.93;;;14.90;98.50;;;;;;5093236;28;20820;-76
2023/03/14 11:17:42;;;;;;;10.40;10.10;;;14.70;99.90;;;;;;5093215;28;20454;-76
2023/03/14 11:20:24;;;;;;;10.37;9.87;;;14.60;99.90;;;;;;5093050;28;20453;-76
2023/03/14 11:22:58;;;;;;;9.43;9.13;;;14.30;99.90;;;;;;5093188;28;21047;-75
2023/03/14 11:25:31;;;;;;;8.97;8.67;;;14.20;99.90;;;;;;5092501;28;20450;-76
2023/03/14 11:28:08;;;;;;;11.90;11.50;;;14.30;99.90;;;;;;5092859;28;20450;-74
2023/03/14 11:30:40;;;;;;;12.30;11.90;;;14.20;99.90;;;;;;5092932;28;20482;-72
2023/03/14 11:33:14;;;;;;;14.70;14.30;;;13.70;99.90;;;;;;5092988;28;20865;-73
2023/03/14 11:35:47;;;;;;;15.97;15.47;;;13.30;99.90;;;;;;5092874;28;20489;-73
2023/03/14 11:38:26;;;;;;;16.00;15.40;;;12.90;99.90;;;;;;5092651;28;20458;-73
2023/03/14 11:40:55;;;;;;;16.63;15.63;;;12.70;99.90;;;;;;5093043;28;20537;-76
2023/03/14 11:43:29;;;;;;;16.63;16.03;;;12.70;99.90;;;;;;5092993;28;20797;-76
2023/03/14 11:46:02;;;;;;;17.03;16.43;;;12.80;99.90;;;;;;5092562;28;20450;-76
2023/03/14 11:48:37;;;;;;;16.70;16.00;;;12.70;99.90;;;;;;5092612;28;20552;-76
2023/03/14 11:51:13;;;;;;;15.13;14.63;;;12.70;99.90;;;;;;5092518;28;20910;-76
2023/03/14 11:53:48;;;;;;;13.90;13.40;;;12.80;99.90;;;;;;5092817;28;20449;-77
2023/03/14 11:56:23;;;;;;;13.00;12.60;;;12.80;99.90;;;;;;5092686;28;20517;-78
2023/03/14 11:58:58;;;;;;;10.33;10.03;;;12.70;99.90;;;;;;5092561;28;20960;-77
2023/03/14 12:01:33;;;;;;;14.13;13.40;;;12.80;99.90;;;;;;5092803;28;20931;-76
2023/03/14 12:04:06;;;;;;;13.40;13.00;;;12.90;99.90;;;;;;5092411;28;20802;-76
2023/03/14 12:06:38;;;;;;;13.13;12.73;;;12.70;99.90;;;;;;5092552;28;20454;-76
2023/03/14 12:09:06;;;;;;;12.00;11.60;;;12.60;99.90;;;;;;5092708;28;20462;-76
2023/03/14 12:11:39;;;;;;;10.30;9.90;;;12.70;99.90;;;;;;5092387;28;20503;-76
2023/03/14 12:14:23;;;;;;;10.20;9.90;;;12.90;99.90;;;;;;5092389;28;20941;-76
2023/03/14 12:16:56;;;;;;;10.73;10.43;;;13.40;99.90;;;;;;5092254;28;20449;-76
2023/03/14 12:19:42;;;;;;;9.40;9.10;;;13.70;99.90;;;;;;5092527;28;20539;-75
2023/03/14 12:22:28;;;;;;;9.87;9.57;;;14.00;99.90;;;;;;5091582;28;20442;-76
2023/03/14 12:25:00;;;;;;;10.00;9.70;;;14.10;99.90;;;;;;5092092;28;20862;-77
2023/03/14 12:27:57;;;;;;;11.40;11.10;;;14.20;99.90;;;;;;5092265;28;20446;-76
2023/03/14 12:30:32;;;;;;;10.00;9.70;;;13.70;99.90;;;;;;5078990;28;20485;-77
2023/03/14 12:33:33;;;;;;;8.10;7.90;;;13.80;99.90;;;;;;5091838;28;21026;-77
2023/03/14 12:36:02;;;;;;;9.60;9.30;;;14.10;99.90;;;;;;5091795;28;20533;-77
2023/03/14 12:38:50;;;;;;;11.00;10.70;;;14.30;99.90;;;;;;5091706;28;20902;-77
2023/03/14 12:41:21;;;;;;;9.23;8.67;;;14.80;99.90;;;;;;5092024;28;20447;-77
2023/03/14 12:43:48;;;;;;;8.67;8.47;;;14.70;99.90;;;;;;5091559;28;20443;-77
2023/03/14 12:46:27;;;;;;;9.70;9.40;;;14.30;99.90;;;;;;5091961;28;20855;-77
2023/03/14 12:49:07;;;;;;;9.73;9.33;;;14.30;98.10;;;;;;5091905;28;20539;-77
2023/03/14 12:51:37;;;;;;;8.50;8.30;;;15.00;95.90;;;;;;5091673;28;20573;-76
2023/03/14 12:54:40;;;;;;;9.57;9.27;;;15.50;95.90;;;;;;5091430;28;20473;-76
2023/03/14 12:57:28;;;;;;;9.90;9.60;;;16.20;90.30;;;;;;5029152;28;20478;-75
2023/03/14 12:59:58;;;;;;;9.70;9.40;;;15.90;86.70;;;;;;5028875;28;20454;-75
2023/03/14 13:02:28;;;;;;;11.10;10.80;;;15.20;89.20;;;;;;5068299;28;20442;-74
2023/03/14 13:05:04;;;;;;;9.60;9.30;;;14.90;86.50;;;;;;5091439;28;20521;-75
2023/03/14 13:07:56;;;;;;;9.63;9.33;;;14.30;89.10;;;;;;5091205;28;20573;-74
2023/03/14 13:10:24;;;;;;;10.63;10.03;;;14.60;88.60;;;;;;5090982;28;20559;-75
2023/03/14 13:12:53;;;;;;;8.07;7.57;;;15.10;87.00;;;;;;5091285;28;20815;-75
2023/03/14 13:15:23;;;;;;;9.73;9.20;;;15.00;87.40;;;;;;5091257;28;20814;-75
2023/03/14 13:17:55;;;;;;;9.57;9.27;;;14.70;85.80;;;;;;5091247;28;20511;-75
2023/03/14 13:20:27;;;;;;;10.20;9.90;;;14.20;87.10;;;;;;5091136;28;20446;-76
2023/03/14 13:22:54;;;;;;;10.80;10.40;;;13.90;88.70;;;;;;5090971;28;20991;-74
2023/03/14 13:25:22;;;;;;;10.30;9.90;;;13.70;86.30;;;;;;5091117;28;20446;-75
2023/03/14 13:27:49;;;;;;;9.67;9.27;;;13.80;86.50;;;;;;5090957;28;20457;-75
2023/03/14 13:30:18;;;;;;;8.87;8.37;;;14.00;84.60;;;;;;5090680;28;20486;-75
2023/03/14 13:32:47;;;;;;;9.90;9.40;;;14.10;85.30;;;;;;5090637;28;20450;-74
2023/03/14 13:35:22;;;;;;;10.23;9.83;;;14.00;85.10;;;;;;5090253;28;21256;-75
2023/03/14 13:37:55;;;;;;;9.37;8.97;;;13.70;85.20;;;;;;5090852;28;20807;-75
2023/03/14 13:40:29;;;;;;;10.20;9.80;;;13.40;86.80;;;;;;5090753;28;20507;-76
2023/03/14 13:43:16;;;;;;;8.70;8.20;;;13.10;84.30;;;;;;5090781;28;20454;-76
2023/03/14 13:45:47;;;;;;;9.20;8.80;;;12.60;84.20;;;;;;5090491;28;20501;-75
2023/03/14 13:48:16;;;;;;;9.43;9.03;;;12.20;85.80;;;;;;5090550;28;20457;-75
2023/03/14 13:50:51;;;;;;;9.00;8.60;;;12.30;85.00;;;;;;5090256;28;20501;-73
2023/03/14 13:53:18;;;;;;;9.27;8.97;;;12.40;85.50;;;;;;5090472;28;20537;-74
2023/03/14 13:55:45;;;;;;;10.50;10.10;;;12.40;84.20;;;;;;5090389;28;20541;-74
2023/03/14 13:58:21;;;;;;;9.50;9.10;;;12.80;83.10;;;;;;5090223;28;20854;-74
2023/03/14 14:01:06;;;;;;;9.20;8.87;;;13.00;84.00;;;;;;5090570;28;20495;-74
2023/03/14 14:03:35;;;;;;;8.67;8.37;;;12.90;82.10;;;;;;5090255;28;20933;-75
2023/03/14 14:06:04;;;;;;;9.37;8.83;;;13.10;82.60;;;;;;5090206;28;20457;-76
2023/03/14 14:08:31;;;;;;;8.47;8.17;;;12.60;80.70;;;;;;5090159;28;20470;-75
2023/03/14 14:11:02;;;;;;;8.77;8.37;;;12.50;81.00;;;;;;5090006;28;20489;-75
2023/03/14 14:13:30;;;;;;;8.63;8.10;;;12.10;81.60;;;;;;5090296;28;20470;-74
2023/03/14 14:16:01;;;;;;;8.37;7.97;;;12.00;82.30;;;;;;5090223;28;20450;-74
2023/03/14 14:18:31;;;;;;;8.10;7.80;;;12.20;81.80;;;;;;5090176;28;20446;-75
2023/03/14 14:20:58;;;;;;;9.70;9.30;;;12.00;78.50;;;;;;5090307;28;20446;-75
2023/03/14 14:23:28;;;;;;;9.50;9.10;;;12.00;78.70;;;;;;5090121;28;20858;-75
2023/03/14 14:25:57;;;;;;;9.77;9.27;;;11.90;77.00;;;;;;5090199;28;20451;-75
2023/03/14 14:28:27;;;;;;;8.70;8.40;;;11.80;75.60;;;;;;5090140;28;20991;-76
2023/03/14 14:31:19;;;;;;;8.50;8.10;;;11.70;76.20;;;;;;5090122;28;20482;-75
2023/03/14 14:33:47;;;;;;;8.97;8.60;;;11.70;76.10;;;;;;5090010;28;20837;-75
2023/03/14 14:36:19;;;;;;;8.80;8.53;;;11.70;75.50;;;;;;5089987;28;20860;-75
2023/03/14 14:38:58;;;;;;;10.20;9.60;;;11.60;76.80;;;;;;5089867;28;20450;-75
2023/03/14 14:41:28;;;;;;;8.30;8.00;;;11.60;76.20;;;;;;5090329;28;20434;-75
2023/03/14 14:43:55;;;;;;;8.33;8.13;;;11.70;76.50;;;;;;5090044;28;20856;-75
2023/03/14 14:46:22;;;;;;;8.50;8.17;;;11.70;76.10;;;;;;5091918;28;20450;-75
2023/03/14 14:48:51;;;;;;;9.23;8.83;;;11.70;77.10;;;;;;5093947;28;20507;-74
2023/03/14 14:51:33;;;;;;;8.67;8.27;;;11.70;77.50;;;;;;5093191;28;20993;-75
2023/03/14 14:54:05;;;;;;;8.40;8.10;;;11.80;77.40;;;;;;5092998;28;20450;-76
2023/03/14 14:56:36;;;;;;;8.70;8.30;;;11.70;76.70;;;;;;5092719;28;20953;-74
2023/03/14 14:59:05;;;;;;;9.13;8.83;;;11.60;76.60;;;;;;5092420;28;20454;-74
2023/03/14 15:01:35;;;;;;;8.70;8.30;;;11.50;76.20;;;;;;5092234;28;20446;-74
2023/03/14 15:04:02;;;;;;;8.97;8.60;;;11.40;77.60;;;;;;5092490;28;20544;-75
2023/03/14 15:06:30;;;;;;;9.03;8.63;;;11.30;77.60;;;;;;5092353;28;20522;-75
2023/03/14 15:08:58;;;;;;;8.60;8.20;;;11.40;77.70;;;;;;5092213;28;20478;-75
2023/03/14 15:11:27;;;;;;;9.23;8.73;;;11.40;78.10;;;;;;5092307;28;20490;-75
2023/03/14 15:13:54;;;;;;;8.67;8.17;;;11.60;77.90;;;;;;5092254;28;20446;-75
2023/03/14 15:16:23;;;;;;;8.43;8.07;;;11.60;77.80;;;;;;5092332;28;20450;-76
2023/03/14 15:18:55;;;;;;;8.80;8.30;;;11.70;77.20;;;;;;5092119;28;20518;-75
2023/03/14 15:21:21;;;;;;;9.50;9.10;;;11.70;77.50;;;;;;5092207;28;20802;-75
2023/03/14 15:23:48;;;;;;;8.67;8.27;;;11.70;77.30;;;;;;5092018;28;20450;-76
2023/03/14 15:26:17;;;;;;;10.00;9.60;;;11.70;77.80;;;;;;5092355;28;20451;-75
2023/03/14 15:28:45;;;;;;;8.77;8.27;;;11.90;77.60;;;;;;5092468;28;20459;-75
2023/03/14 15:31:13;;;;;;;11.00;10.20;;;11.90;76.00;;;;;;5091937;28;20481;-75
2023/03/14 15:33:39;;;;;;;8.80;8.50;;;11.90;76.30;;;;;;5092178;28;20472;-74
2023/03/14 15:36:16;;;;;;;9.50;9.10;;;11.80;76.70;;;;;;5092063;28;20442;-74
2023/03/14 15:38:43;;;;;;;8.30;7.90;;;11.70;77.10;;;;;;5091731;28;20453;-75
2023/03/14 15:41:10;;;;;;;9.60;9.20;;;11.60;77.40;;;;;;5091832;28;20590;-75
2023/03/14 15:43:36;;;;;;;10.30;9.90;;;11.60;77.40;;;;;;5092065;28;20553;-75
2023/03/14 15:46:06;;;;;;;10.90;10.00;;;11.50;77.80;;;;;;5091683;28;20442;-75
2023/03/14 15:48:32;;;;;;;9.33;9.03;;;11.50;78.60;;;;;;5091612;28;20499;-75
2023/03/14 15:50:59;;;;;;;9.63;9.10;;;11.40;79.30;;;;;;5091634;28;20855;-74
2023/03/14 15:53:26;;;;;;;8.43;8.13;;;11.40;79.30;;;;;;5091623;28;20888;-73
2023/03/14 15:55:52;;;;;;;9.60;9.07;;;11.50;79.50;;;;;;5091646;28;20963;-75
2023/03/14 15:58:20;;;;;;;9.53;9.13;;;11.50;79.80;;;;;;5091418;28;20461;-74
2023/03/14 16:00:47;;;;;;;9.57;9.17;;;11.60;79.40;;;;;;5091529;28;20438;-74
2023/03/14 16:03:15;;;;;;;9.33;9.00;;;11.60;79.30;;;;;;5091309;28;20989;-74
2023/03/14 16:05:42;;;;;;;8.80;8.50;;;11.70;80.00;;;;;;5091081;28;20961;-75
2023/03/14 16:08:09;;;;;;;9.57;8.97;;;11.60;79.00;;;;;;5091452;28;20475;-75
2023/03/14 16:10:36;;;;;;;9.13;8.57;;;11.60;79.40;;;;;;5091309;28;20482;-74
2023/03/14 16:13:03;;;;;;;9.47;9.00;;;11.50;80.10;;;;;;5091178;28;20861;-74
2023/03/14 16:15:30;;;;;;;9.60;9.23;;;11.50;80.20;;;;;;5091241;28;20442;-74
2023/03/14 16:17:57;;;;;;;9.00;8.60;;;11.30;81.30;;;;;;5091021;28;20454;-75
2023/03/14 16:20:25;;;;;;;9.00;8.67;;;11.30;81.30;;;;;;5091271;28;20473;-74
2023/03/14 16:22:52;;;;;;;10.50;9.30;;;11.20;81.80;;;;;;5091538;28;20450;-74
2023/03/14 16:25:19;;;;;;;9.30;9.00;;;11.20;82.20;;;;;;5091601;28;20492;-76
2023/03/14 16:27:45;;;;;;;9.60;9.20;;;11.30;82.30;;;;;;5091272;28;20439;-76
2023/03/14 16:30:13;;;;;;;8.93;8.53;;;11.30;82.20;;;;;;5091445;28;20465;-75
2023/03/14 16:32:40;;;;;;;9.30;8.80;;;11.20;82.20;;;;;;5090864;28;20937;-74
2023/03/14 16:35:08;;;;;;;9.37;9.00;;;11.20;82.80;;;;;;5091267;28;20468;-76
2023/03/14 16:37:36;;;;;;;8.33;8.03;;;11.10;82.60;;;;;;5091285;28;20451;-74
2023/03/14 16:40:04;;;;;;;8.60;8.20;;;11.00;83.70;;;;;;5091015;28;20450;-75
2023/03/14 16:42:30;;;;;;;8.87;8.50;;;10.90;84.60;;;;;;5090935;28;20561;-75
2023/03/14 16:44:57;;;;;;;8.87;8.37;;;10.90;84.70;;;;;;5090902;28;20496;-74
2023/03/14 16:47:24;;;;;;;9.30;8.70;;;10.80;85.50;;;;;;5090731;28;20457;-75
2023/03/14 16:49:50;;;;;;;9.50;8.73;;;10.60;86.00;;;;;;5091031;28;20446;-76
2023/03/14 16:52:17;;;;;;;8.27;7.97;;;10.60;86.30;;;;;;5090179;28;20482;-75
2023/03/14 16:54:45;;;;;;;9.70;9.10;;;10.70;86.40;;;;;;5090709;28;20530;-75
2023/03/14 16:57:12;;;;;;;9.20;8.70;;;10.70;86.50;;;;;;5090531;28;20662;-75
2023/03/14 16:59:38;;;;;;;9.23;8.60;;;10.70;86.20;;;;;;5090929;28;20457;-74
2023/03/14 17:02:05;;;;;;;9.03;8.53;;;10.70;87.80;;;;;;5090708;28;20446;-76
2023/03/14 17:04:32;;;;;;;8.40;7.90;;;10.60;87.50;;;;;;5090668;28;20447;-75
2023/03/14 17:06:58;;;;;;;8.13;7.83;;;10.60;87.30;;;;;;5090664;28;20446;-75
2023/03/14 17:09:27;;;;;;;8.60;8.00;;;10.60;88.00;;;;;;5089814;28;20490;-74
2023/03/14 17:11:55;;;;;;;8.40;7.87;;;10.50;88.20;;;;;;5090464;28;20528;-74
2023/03/14 17:14:23;;;;;;;7.90;7.50;;;10.50;88.30;;;;;;5090682;28;20828;-75
2023/03/14 17:16:50;;;;;;;8.90;8.40;;;10.50;88.80;;;;;;5090533;28;20545;-74
2023/03/14 17:19:17;;;;;;;9.77;9.20;;;10.50;89.20;;;;;;5090390;28;20548;-74
2023/03/14 17:21:43;;;;;;;9.03;8.70;;;10.50;90.20;;;;;;5090523;28;20721;-75
2023/03/14 17:24:10;;;;;;;7.67;7.37;;;10.50;90.00;;;;;;5090291;28;20945;-76
2023/03/14 17:26:37;;;;;;;8.30;7.60;;;10.50;89.60;;;;;;5090589;28;20461;-75
2023/03/14 17:29:05;;;;;;;9.40;8.60;;;10.50;90.10;;;;;;5090225;28;20446;-75
2023/03/14 17:31:32;;;;;;;8.90;8.30;;;10.40;90.20;;;;;;5090387;28;20486;-75
2023/03/14 17:33:58;;;;;;;9.63;8.80;;;10.20;95.00;;;;;;5090293;28;20458;-74
2023/03/14 17:36:29;;;;;;;8.90;8.37;;;9.90;99.60;;;;;;5090564;28;20834;-75
2023/03/14 17:38:56;;;;;;;10.60;10.20;;;9.80;99.90;;;;;;5090136;28;20478;-72
2023/03/14 17:41:23;;;;;;;11.93;11.23;;;9.40;99.90;;;;;;5090240;28;20533;-73
2023/03/14 17:43:50;;;;;;;12.00;11.43;;;9.00;99.90;;;;;;5090450;28;20515;-72
2023/03/14 17:46:18;;;;;;;12.33;11.77;;;8.70;99.90;;;;;;5090261;28;20450;-73
2023/03/14 17:48:46;;;;;;;12.40;11.70;;;8.50;99.90;;;;;;5090298;28;20711;-73
2023/03/14 17:51:13;;;;;;;12.47;11.77;;;8.40;99.90;;;;;;5090072;28;20485;-73
2023/03/14 17:53:40;;;;;;;15.40;14.20;;;8.30;99.90;;;;;;5090317;28;20446;-74
2023/03/14 17:56:08;;;;;;;11.30;10.70;;;8.30;99.90;;;;;;5090657;28;20477;-74
